Flight Briefing for CMB855

Departure Arrival
Guam International Airport (PGUM)
Click to view FAA NOTAMS
Daniel K Inouye International Airport (PHNL)
Click to view FAA NOTAMS
Departure Time Arrival Time
N/A N/A
Aircraft Distance
B757-200SF 3303nm
Departure METAR Arrival METAR
PGUM 252254Z 09012KT 10SM SCT017 BKN085 27/24 A3003 RMK AO2 SLP160 T02720239 PHNL 252253Z 08012KT 10SM SCT023 SCT043 BKN065 BKN130 27/18 A3009 RMK AO2 SLP187 T02670183
Suggested Route
DEWSS A450 NATIE A450 BRIUN NONNI BOOKE BOOKE8


View recent IFR Routes data
Notes
USTRANSCOM CONTRACT FLIGHT | PAYLOAD RESTRICTED | ETOPS

Charts and Procedures

Charts for PGUM
No chart available
Charts for PHNL
No chart available

Windy.com Weather Map